KAPA

Centennial Airport

Denver, Colorado, USA
METAR KAPA 212353Z 36009KT 8SM FEW090 FEW200 M07/M11 A3007 RMK AO2 SLP271 T10721111 11017 21072 53005
Observed Flight Rules
Feb-21 @ 23:53 UTC (5 hours ago) Visual Flight Rules
Wind Visibility Clouds
360° at 9 knots 8 miles
  • Few at 9,000' AGL
  • Few at 20,000' AGL
Temperatures Readings
Current -7°C / 19°F
Dewpoint -11°C / 12°F
Humidity 73%
Altimeter 30.07" Hg
Pressure 1027.1 hPa
Elevation 1775
METAR KAPA 212353Z 36009KT 8SM FEW090 FEW200 M07/M11 A3007 RMK AO2 SLP271 T10721111 11017 21072 53005
Observed Flight Rules
Feb-21 @ 23:53 UTC
(5 hours ago)
VFR
Wind Visibility
360° at 9 knots 8 miles
Clouds
  • Few at 9,000' AGL
  • Few at 20,000' AGL
Temperature Dewpoint
-7°C / 19°F -11°C / 12°F
Humidity Altimeter Pressure
73% 30.07" Hg 1027.1 hPa